createdAt,value
2022-09-23T00:01:11.093Z,100197.78
2022-09-23T00:03:41.943Z,100200.25
2022-09-23T00:06:14.755Z,100204.13
2022-09-23T00:08:42.331Z,100206.19
2022-09-23T00:11:21.082Z,100208.62
2022-09-23T00:13:50.409Z,100205.44
2022-09-23T00:16:21.513Z,100195.84
2022-09-23T00:18:50.631Z,100195.84
2022-09-23T00:21:19.591Z,100197.97
2022-09-23T00:23:47.479Z,100193.78
2022-09-23T00:26:16.995Z,100189.16
2022-09-23T00:28:44.752Z,100188.41
2022-09-23T00:31:15.361Z,100185.53
2022-09-23T00:33:43.155Z,100185.66
2022-09-23T00:36:15.177Z,100176.09
2022-09-23T00:38:44.298Z,100178.63
2022-09-23T00:41:17.663Z,100180.19
2022-09-23T00:43:51.214Z,100172.81
2022-09-23T00:46:24.803Z,100165.66
2022-09-23T00:49:00.558Z,100168.00
2022-09-23T00:51:34.542Z,100174.66
2022-09-23T00:54:02.743Z,100162.06
2022-09-23T00:56:30.744Z,100166.09
2022-09-23T00:58:58.205Z,100171.72
2022-09-23T01:01:25.923Z,100168.63
2022-09-23T01:03:54.462Z,100169.59
2022-09-23T01:06:21.811Z,100171.38
2022-09-23T01:08:49.539Z,100169.81
2022-09-23T01:11:54.486Z,100170.69
2022-09-23T01:14:59.175Z,100171.41
2022-09-23T01:17:39.494Z,100166.75
2022-09-23T01:20:31.259Z,100172.41
2022-09-23T01:23:52.873Z,100168.47
2022-09-23T01:26:39.087Z,100172.41
2022-09-23T01:29:25.636Z,100168.97
2022-09-23T01:32:04.063Z,100173.28
2022-09-23T01:34:35.088Z,100177.28
2022-09-23T01:37:26.566Z,100176.00
2022-09-23T01:40:04.213Z,100167.56
2022-09-23T01:42:39.501Z,100173.97
2022-09-23T01:45:32.399Z,100173.97
2022-09-23T01:48:36.955Z,100162.09
2022-09-23T01:51:12.775Z,100168.47
2022-09-23T01:53:50.605Z,100166.28
2022-09-23T01:56:25.190Z,100177.44
2022-09-23T01:58:55.985Z,100171.78
2022-09-23T02:01:37.524Z,100171.25
2022-09-23T02:04:25.722Z,100166.28
2022-09-23T02:06:56.365Z,100165.16
2022-09-23T02:09:26.052Z,100169.78
2022-09-23T02:11:58.854Z,100169.69
2022-09-23T02:14:36.805Z,100169.37
2022-09-23T02:17:09.865Z,100161.09
2022-09-23T02:19:44.552Z,100161.41
2022-09-23T02:22:17.052Z,100164.19
2022-09-23T02:24:45.144Z,100176.34
2022-09-23T02:27:20.704Z,100167.94
2022-09-23T02:30:11.458Z,100169.37
2022-09-23T02:33:05.429Z,100162.63
2022-09-23T02:35:37.210Z,100164.56
2022-09-23T02:38:17.931Z,100158.81
2022-09-23T02:40:52.287Z,100170.22
2022-09-23T02:43:35.623Z,100167.13
2022-09-23T02:46:05.013Z,100157.22
2022-09-23T02:48:41.331Z,100161.63
2022-09-23T02:51:09.983Z,100161.94
2022-09-23T02:53:37.464Z,100159.50
2022-09-23T02:56:16.181Z,100164.59
2022-09-23T02:58:44.105Z,100164.66
2022-09-23T03:01:18.985Z,100162.06
2022-09-23T03:04:14.866Z,100160.84
2022-09-23T03:06:53.384Z,100164.56
2022-09-23T03:09:31.893Z,100157.34
2022-09-23T03:12:15.687Z,100165.13
2022-09-23T03:15:06.029Z,100167.75
2022-09-23T03:17:48.986Z,100167.97
2022-09-23T03:20:29.035Z,100160.66
2022-09-23T03:23:00.874Z,100162.25
2022-09-23T03:25:31.790Z,100168.56
2022-09-23T03:28:00.928Z,100163.63
2022-09-23T03:30:29.495Z,100163.03
2022-09-23T03:32:58.057Z,100164.91
2022-09-23T03:35:27.594Z,100165.41
2022-09-23T03:38:24.577Z,100171.41
2022-09-23T03:40:54.813Z,100168.66
2022-09-23T03:43:22.521Z,100158.44
2022-09-23T03:45:54.817Z,100162.16
2022-09-23T03:48:22.445Z,100164.53
2022-09-23T03:50:49.830Z,100164.41
2022-09-23T03:53:21.057Z,100166.37
2022-09-23T03:55:48.685Z,100175.47
2022-09-23T03:58:16.002Z,100169.31
2022-09-23T04:00:45.192Z,100166.88
2022-09-23T04:03:12.848Z,100171.25
2022-09-23T04:05:40.278Z,100162.97
2022-09-23T04:08:07.610Z,100171.53
2022-09-23T04:10:35.282Z,100170.03
2022-09-23T04:13:02.672Z,100164.34
2022-09-23T04:15:30.017Z,100171.16
2022-09-23T04:17:57.628Z,100169.25
2022-09-23T04:20:26.065Z,100174.44
2022-09-23T04:22:53.582Z,100175.13
2022-09-23T04:25:21.240Z,100167.81
2022-09-23T04:27:48.607Z,100171.75
2022-09-23T04:30:15.968Z,100173.38
2022-09-23T04:32:43.603Z,100169.53
2022-09-23T04:35:10.935Z,100173.97
2022-09-23T04:37:38.301Z,100175.22
2022-09-23T04:40:06.679Z,100177.69
2022-09-23T04:42:34.072Z,100174.44
2022-09-23T04:45:01.591Z,100182.03
2022-09-23T04:47:31.757Z,100185.00
2022-09-23T04:50:00.055Z,100186.88
2022-09-23T04:52:27.496Z,100187.22
2022-09-23T04:54:55.106Z,100191.34
2022-09-23T04:57:23.176Z,100185.06
2022-09-23T04:59:50.812Z,100180.06
2022-09-23T05:02:18.505Z,100186.34
2022-09-23T05:04:45.889Z,100194.66
2022-09-23T05:07:13.239Z,100201.59
2022-09-23T05:09:41.509Z,100198.97
2022-09-23T05:12:08.903Z,100198.31
2022-09-23T05:14:36.256Z,100201.69
2022-09-23T05:17:03.901Z,100206.28
2022-09-23T05:19:31.327Z,100208.38
2022-09-23T05:21:58.651Z,100208.31
2022-09-23T05:24:26.277Z,100214.13
2022-09-23T05:26:54.202Z,100208.31
2022-09-23T05:29:21.556Z,100212.41
2022-09-23T05:31:49.309Z,100208.94
2022-09-23T05:34:18.676Z,100218.97
2022-09-23T05:36:46.112Z,100216.28
2022-09-23T05:39:13.727Z,100217.59
2022-09-23T05:41:42.949Z,100221.53
2022-09-23T05:44:10.480Z,100224.78
2022-09-23T05:46:38.178Z,100215.94
2022-09-23T05:49:06.095Z,100215.56
2022-09-23T05:51:35.086Z,100214.53
2022-09-23T05:54:04.297Z,100217.28
2022-09-23T05:56:32.998Z,100213.34
2022-09-23T05:59:01.802Z,100217.53
2022-09-23T06:01:35.261Z,100211.16
2022-09-23T06:04:04.948Z,100205.63
2022-09-23T06:06:35.028Z,100212.75
2022-09-23T06:09:03.853Z,100214.63
2022-09-23T06:11:32.749Z,100213.87
2022-09-23T06:14:01.248Z,100215.12
2022-09-23T06:16:31.224Z,100216.31
2022-09-23T06:19:05.102Z,100214.53
2022-09-23T06:21:35.050Z,100212.16
2022-09-23T06:24:03.025Z,100217.19
2022-09-23T06:26:33.767Z,100219.78
2022-09-23T06:29:04.596Z,100219.19
2022-09-23T06:31:33.019Z,100218.03
2022-09-23T06:34:12.349Z,100215.28
2022-09-23T06:36:45.828Z,100213.22
2022-09-23T06:39:15.793Z,100218.34
2022-09-23T06:41:44.326Z,100227.94
2022-09-23T06:44:15.704Z,100219.22
2022-09-23T06:46:44.138Z,100227.97
2022-09-23T06:49:12.185Z,100220.75
2022-09-23T06:51:40.241Z,100228.66
2022-09-23T06:54:08.224Z,100222.19
2022-09-23T06:56:39.232Z,100225.28
2022-09-23T06:59:09.148Z,100226.56
2022-09-23T07:01:36.908Z,100225.00
2022-09-23T07:04:04.313Z,100219.63
2022-09-23T07:06:31.698Z,100222.00
2022-09-23T07:09:00.987Z,100217.09
2022-09-23T07:11:28.349Z,100228.41
2022-09-23T07:13:55.742Z,100224.22
2022-09-23T07:16:23.467Z,100222.38
2022-09-23T07:18:52.438Z,100218.41
2022-09-23T07:21:19.840Z,100228.53
2022-09-23T07:23:51.099Z,100226.03
2022-09-23T07:26:19.775Z,100234.75
2022-09-23T07:28:47.403Z,100233.87
2022-09-23T07:31:25.683Z,100236.75
2022-09-23T07:33:57.924Z,100238.38
2022-09-23T07:36:27.964Z,100245.91
2022-09-23T07:39:02.841Z,100236.69
2022-09-23T07:41:32.185Z,100239.69
2022-09-23T07:44:00.862Z,100239.22
2022-09-23T07:46:32.849Z,100240.28
2022-09-23T07:49:02.234Z,100237.16
2022-09-23T07:51:36.325Z,100236.25
2022-09-23T07:54:10.210Z,100233.87
2022-09-23T07:56:40.290Z,100233.06
2022-09-23T07:59:11.363Z,100234.97
2022-09-23T08:01:42.312Z,100232.00
2022-09-23T08:04:18.020Z,100233.87
2022-09-23T08:06:50.965Z,100236.97
2022-09-23T08:09:20.233Z,100239.31
2022-09-23T08:11:47.941Z,100235.25
2022-09-23T08:14:17.841Z,100233.66
2022-09-23T08:16:46.883Z,100235.38
2022-09-23T08:19:15.036Z,100238.59
2022-09-23T08:21:43.193Z,100237.22
2022-09-23T08:24:16.991Z,100234.19
2022-09-23T08:26:45.245Z,100230.41
2022-09-23T08:29:14.620Z,100231.41
2022-09-23T08:31:42.284Z,100231.31
2022-09-23T08:34:10.657Z,100227.91
2022-09-23T08:36:39.693Z,100234.81
2022-09-23T08:39:07.053Z,100216.75
2022-09-23T08:41:52.881Z,100221.62
2022-09-23T08:44:43.306Z,100219.25
2022-09-23T08:47:19.188Z,100222.25
2022-09-23T08:50:00.580Z,100229.41
2022-09-23T08:52:36.204Z,100229.97
2022-09-23T08:55:04.509Z,100234.13
2022-09-23T08:57:34.675Z,100230.28
2022-09-23T09:00:02.288Z,100225.81
2022-09-23T09:02:30.860Z,100221.66
2022-09-23T09:05:03.345Z,100226.63
2022-09-23T09:07:37.363Z,100226.09
2022-09-23T09:10:26.851Z,100229.25
2022-09-23T09:13:01.640Z,100227.25
2022-09-23T09:15:29.247Z,100225.84
2022-09-23T09:18:14.219Z,100221.75
2022-09-23T09:21:28.186Z,100225.41
2022-09-23T09:23:59.263Z,100218.94
2022-09-23T09:26:33.859Z,100223.97
2022-09-23T09:29:17.206Z,100224.22
2022-09-23T09:31:51.189Z,100214.66
2022-09-23T09:34:28.977Z,100213.28
2022-09-23T09:37:08.122Z,100212.69
2022-09-23T09:39:36.840Z,100207.72
2022-09-23T09:42:07.584Z,100212.63
2022-09-23T09:45:03.532Z,100211.56
2022-09-23T09:47:33.720Z,100207.41
2022-09-23T09:50:11.092Z,100200.63
2022-09-23T09:52:43.093Z,100201.75
2022-09-23T09:55:14.541Z,100195.94
2022-09-23T09:57:55.948Z,100195.12
2022-09-23T10:00:32.735Z,100193.78
2022-09-23T10:03:26.960Z,100190.78
2022-09-23T10:05:57.693Z,100186.56
2022-09-23T10:08:28.727Z,100192.06
2022-09-23T10:10:58.969Z,100180.78
2022-09-23T10:13:29.967Z,100192.56
2022-09-23T10:16:04.424Z,100188.31
2022-09-23T10:18:38.628Z,100179.94
2022-09-23T10:21:18.138Z,100181.59
2022-09-23T10:23:55.918Z,100182.06
2022-09-23T10:26:55.036Z,100184.53
2022-09-23T10:29:48.155Z,100179.37
2022-09-23T10:32:36.361Z,100187.41
2022-09-23T10:35:07.689Z,100183.31
2022-09-23T10:37:40.645Z,100186.31
2022-09-23T10:40:39.457Z,100176.19
2022-09-23T10:43:39.175Z,100183.69
2022-09-23T10:46:34.659Z,100166.53
2022-09-23T10:49:28.012Z,100168.28
2022-09-23T10:52:12.085Z,100174.59
2022-09-23T10:54:49.749Z,100170.81
2022-09-23T10:57:40.676Z,100178.50
2022-09-23T11:00:51.871Z,100177.81
2022-09-23T11:03:50.741Z,100166.88
2022-09-23T11:06:36.970Z,100168.66
2022-09-23T11:09:17.146Z,100171.94
2022-09-23T11:12:12.375Z,100160.22
2022-09-23T11:14:55.298Z,100155.44
2022-09-23T11:17:43.337Z,100157.81
2022-09-23T11:20:37.162Z,100164.06
2022-09-23T11:23:22.208Z,100159.59
2022-09-23T11:25:56.317Z,100149.09
2022-09-23T11:28:53.850Z,100150.59
2022-09-23T11:31:43.288Z,100145.44
2022-09-23T11:34:52.735Z,100145.19
2022-09-23T11:37:29.911Z,100142.69
2022-09-23T11:40:01.869Z,100138.66
2022-09-23T11:42:33.556Z,100131.87
2022-09-23T11:45:15.076Z,100131.41
2022-09-23T11:47:48.209Z,100129.75
2022-09-23T11:50:27.069Z,100130.06
2022-09-23T11:53:03.200Z,100122.59
2022-09-23T11:55:35.190Z,100122.13
2022-09-23T12:01:07.858Z,100120.53
2022-09-23T12:04:00.454Z,100125.13
2022-09-23T12:06:43.556Z,100116.94
2022-09-23T12:09:30.986Z,100115.88
2022-09-23T12:12:12.424Z,100115.75
2022-09-23T12:15:14.428Z,100111.47
2022-09-23T12:17:54.498Z,100102.91
2022-09-23T12:20:37.935Z,100105.47
2022-09-23T12:23:16.340Z,100093.09
2022-09-23T12:25:56.330Z,100096.03
2022-09-23T12:28:30.063Z,100099.94
2022-09-23T12:30:59.524Z,100092.38
2022-09-23T12:33:29.920Z,100088.13
2022-09-23T12:36:06.397Z,100088.66
2022-09-23T12:38:34.807Z,100085.41
2022-09-23T12:41:08.957Z,100082.47
2022-09-23T12:43:36.366Z,100079.56
2022-09-23T12:46:21.336Z,100074.84
2022-09-23T12:48:58.112Z,100069.41
2022-09-23T12:51:36.159Z,100072.50
2022-09-23T12:54:03.453Z,100061.63
2022-09-23T12:56:36.711Z,100064.37
2022-09-23T12:59:31.177Z,100057.56
2022-09-23T13:02:28.883Z,100054.19
2022-09-23T13:05:25.556Z,100053.78
2022-09-23T13:07:59.622Z,100045.50
2022-09-23T13:10:29.921Z,100043.47
2022-09-23T13:12:57.750Z,100039.44
2022-09-23T13:15:34.049Z,100042.91
2022-09-23T13:18:54.457Z,100036.63
2022-09-23T13:21:43.684Z,100030.81
2022-09-23T13:24:20.297Z,100036.44
2022-09-23T13:26:50.530Z,100029.00
2022-09-23T13:29:28.124Z,100040.50
2022-09-23T13:31:57.889Z,100032.97
2022-09-23T13:34:31.049Z,100035.41
2022-09-23T13:36:58.908Z,100038.88
2022-09-23T13:39:28.574Z,100036.94
2022-09-23T13:42:00.886Z,100037.53
2022-09-23T13:44:28.945Z,100031.22
2022-09-23T13:47:00.760Z,100019.75
2022-09-23T13:49:35.745Z,100024.25
2022-09-23T13:52:03.861Z,100027.56
2022-09-23T13:54:37.222Z,100025.00
2022-09-23T13:57:04.811Z,100033.06
2022-09-23T13:59:42.341Z,100022.63
2022-09-23T14:02:16.819Z,100034.66
2022-09-23T14:04:44.501Z,100026.84
2022-09-23T14:07:16.194Z,100020.19
2022-09-23T14:09:46.213Z,100025.28
2022-09-23T14:12:14.321Z,100019.41
2022-09-23T14:14:42.191Z,100011.69
2022-09-23T14:17:12.566Z,100015.94
2022-09-23T14:19:42.532Z,100014.31
2022-09-23T14:22:29.441Z,100014.72
2022-09-23T14:24:57.582Z,100016.53
2022-09-23T14:27:36.467Z,100005.22
2022-09-23T14:30:04.873Z,100008.97
2022-09-23T14:32:32.947Z,100009.63
2022-09-23T14:35:00.228Z,100004.09
2022-09-23T14:37:50.730Z,100010.66
2022-09-23T14:40:22.312Z,100003.37
2022-09-23T14:42:52.181Z,100008.28
2022-09-23T14:45:21.519Z,100005.31
2022-09-23T14:47:51.305Z,99998.31
2022-09-23T14:50:37.219Z,99994.34
2022-09-23T14:53:17.013Z,99995.00
2022-09-23T14:55:45.658Z,99993.03
2022-09-23T14:58:16.868Z,99994.22
2022-09-23T15:00:59.944Z,99988.56
2022-09-23T15:03:28.597Z,99987.84
2022-09-23T15:06:06.380Z,99976.09
2022-09-23T15:08:36.384Z,99987.31
2022-09-23T15:11:07.843Z,99983.16
2022-09-23T15:13:46.087Z,99984.63
2022-09-23T15:16:15.504Z,99992.38
2022-09-23T15:18:44.868Z,99984.53
2022-09-23T15:21:15.235Z,99989.91
2022-09-23T15:23:55.234Z,99986.53
2022-09-23T15:26:45.331Z,99984.66
2022-09-23T15:29:12.986Z,99985.69
2022-09-23T15:31:40.388Z,99984.72
2022-09-23T15:34:10.040Z,99989.91
2022-09-23T15:36:38.596Z,99985.34
2022-09-23T15:39:08.641Z,99988.47
2022-09-23T15:41:35.993Z,99986.78
2022-09-23T15:44:14.414Z,99988.31
2022-09-23T15:46:46.363Z,99969.94
2022-09-23T15:49:28.456Z,99973.09
2022-09-23T15:51:59.253Z,99978.63
2022-09-23T15:54:28.505Z,99982.03
2022-09-23T15:56:58.604Z,99983.41
2022-09-23T15:59:25.938Z,99985.28
2022-09-23T16:01:54.016Z,99981.44
2022-09-23T16:04:21.834Z,99984.28
2022-09-23T16:06:49.354Z,99985.09
2022-09-23T16:09:16.757Z,99989.50
2022-09-23T16:11:49.265Z,99984.25
2022-09-23T16:14:17.735Z,99976.06
2022-09-23T16:16:47.791Z,99981.78
2022-09-23T16:19:16.151Z,99989.59
2022-09-23T16:21:44.610Z,99982.50
2022-09-23T16:24:15.824Z,99989.22
2022-09-23T16:26:45.242Z,99988.16
2022-09-23T16:29:13.494Z,99989.38
2022-09-23T16:31:41.061Z,99981.75
2022-09-23T16:34:08.496Z,99982.62
2022-09-23T16:36:42.339Z,99987.72
2022-09-23T16:39:12.517Z,99984.78
2022-09-23T16:41:40.447Z,99984.88
2022-09-23T16:44:09.381Z,99986.84
2022-09-23T16:46:36.833Z,99990.66
2022-09-23T16:49:04.697Z,99987.75
2022-09-23T16:51:38.154Z,99993.84
2022-09-23T16:54:10.274Z,99980.53
2022-09-23T16:56:40.377Z,99981.91
2022-09-23T16:59:08.264Z,99979.28
2022-09-23T17:01:54.196Z,99973.06
2022-09-23T17:04:22.657Z,99982.34
2022-09-23T17:06:51.919Z,99978.25
2022-09-23T17:09:21.142Z,99978.00
2022-09-23T17:11:58.764Z,99981.81
2022-09-23T17:14:26.240Z,99984.00
2022-09-23T17:16:53.831Z,99984.81
2022-09-23T17:19:21.177Z,99978.81
2022-09-23T17:21:48.526Z,99979.09
2022-09-23T17:24:16.114Z,99982.16
2022-09-23T17:26:50.712Z,99984.03
2022-09-23T17:29:20.609Z,99993.03
2022-09-23T17:31:48.011Z,99988.91
2022-09-23T17:34:16.360Z,99994.16
2022-09-23T17:36:43.974Z,99993.03
2022-09-23T17:39:11.312Z,99993.84
2022-09-23T17:41:39.295Z,99994.06
2022-09-23T17:44:08.101Z,99993.13
2022-09-23T17:46:35.446Z,99997.53
2022-09-23T17:49:04.092Z,99987.72
2022-09-23T17:51:31.773Z,100000.00
2022-09-23T17:53:59.213Z,99998.63
2022-09-23T17:56:27.013Z,100000.44
2022-09-23T17:58:54.625Z,100000.19
2022-09-23T18:01:24.161Z,100002.66
2022-09-23T18:04:09.714Z,100007.81
2022-09-23T18:06:37.107Z,100005.22
2022-09-23T18:09:07.640Z,100009.31
2022-09-23T18:11:36.955Z,100004.25
2022-09-23T18:14:11.965Z,100006.09
2022-09-23T18:16:40.674Z,100008.28
2022-09-23T18:19:11.360Z,100006.59
2022-09-23T18:21:40.770Z,100006.87
2022-09-23T18:26:59.606Z,100009.34
2022-09-23T18:29:27.375Z,100000.16
2022-09-23T18:31:54.897Z,100003.09
2022-09-23T18:34:23.535Z,100010.59
2022-09-23T18:36:51.266Z,100007.75
2022-09-23T18:39:18.586Z,100011.44
2022-09-23T18:41:46.040Z,100016.59
2022-09-23T18:44:13.686Z,100017.22
2022-09-23T18:46:41.019Z,100023.41
2022-09-23T18:49:27.270Z,100017.88
2022-09-23T18:51:56.387Z,100024.38
2022-09-23T18:54:24.932Z,100017.00
2022-09-23T18:56:52.860Z,100019.78
2022-09-23T18:59:24.693Z,100021.06
2022-09-23T19:01:55.356Z,100010.91
2022-09-23T19:04:25.010Z,100017.59
2022-09-23T19:06:53.967Z,100017.56
2022-09-23T19:09:21.318Z,100015.38
2022-09-23T19:11:52.518Z,100019.91
2022-09-23T19:14:20.191Z,100013.84
2022-09-23T19:16:49.175Z,100013.28
2022-09-23T19:19:17.301Z,100020.13
2022-09-23T19:21:44.816Z,100017.41
2022-09-23T19:24:15.675Z,100023.16
2022-09-23T19:26:46.739Z,100017.59
2022-09-23T19:29:16.522Z,100023.19
2022-09-23T19:31:44.355Z,100017.72
2022-09-23T19:34:17.225Z,100017.53
2022-09-23T19:36:46.039Z,100020.50
2022-09-23T19:39:24.085Z,100017.84
2022-09-23T19:41:52.594Z,100012.41
2022-09-23T19:44:20.287Z,100009.97
2022-09-23T19:46:53.347Z,100017.19
2022-09-23T19:49:25.097Z,100010.19
2022-09-23T19:51:55.721Z,100025.25
2022-09-23T19:54:26.028Z,100017.91
2022-09-23T19:56:53.419Z,100020.16
2022-09-23T19:59:20.761Z,100022.41
2022-09-23T20:01:48.757Z,100019.50
2022-09-23T20:04:17.042Z,100013.75
2022-09-23T20:06:45.900Z,100014.19
2022-09-23T20:09:13.604Z,100011.53
2022-09-23T20:11:43.110Z,100012.22
2022-09-23T20:14:11.070Z,100009.09
2022-09-23T20:16:38.702Z,100017.13
2022-09-23T20:19:06.466Z,100004.28
2022-09-23T20:21:34.386Z,100011.97
2022-09-23T20:24:04.485Z,100012.63
2022-09-23T20:26:51.243Z,100009.25
2022-09-23T20:29:18.594Z,100004.62
2022-09-23T20:31:46.289Z,100011.56
2022-09-23T20:34:13.722Z,100013.84
2022-09-23T20:36:41.777Z,100023.72
2022-09-23T20:39:10.240Z,100013.72
2022-09-23T20:41:39.256Z,100013.44
2022-09-23T20:44:13.954Z,100010.16
2022-09-23T20:46:47.830Z,100014.16
2022-09-23T20:49:16.484Z,100010.53
2022-09-23T20:51:44.457Z,100013.34
2022-09-23T20:54:12.285Z,100005.78
2022-09-23T20:56:39.648Z,100004.22
2022-09-23T20:59:07.357Z,100002.56
2022-09-23T21:01:36.478Z,100000.16
2022-09-23T21:04:05.825Z,99997.28
2022-09-23T21:06:34.989Z,99997.91
2022-09-23T21:09:02.675Z,99999.81
2022-09-23T21:11:30.619Z,100001.97
2022-09-23T21:13:59.157Z,100000.81
2022-09-23T21:16:26.553Z,99995.84
2022-09-23T21:18:54.120Z,100001.09
2022-09-23T21:21:22.407Z,100001.16
2022-09-23T21:23:50.510Z,100004.31
2022-09-23T21:26:23.240Z,99999.28
2022-09-23T21:28:52.727Z,100008.06
2022-09-23T21:31:27.632Z,100005.56
2022-09-23T21:33:56.599Z,99999.25
2022-09-23T21:36:24.731Z,100001.44
2022-09-23T21:38:52.942Z,100008.72
2022-09-23T21:41:20.574Z,100011.50
2022-09-23T21:43:49.565Z,100015.19
2022-09-23T21:46:21.416Z,100016.41
2022-09-23T21:48:53.244Z,100020.25
2022-09-23T21:51:24.966Z,100017.34
2022-09-23T21:53:54.957Z,100017.19
2022-09-23T21:56:27.188Z,100023.66
2022-09-23T21:58:55.945Z,100024.94
2022-09-23T22:01:25.415Z,100015.09
2022-09-23T22:03:55.490Z,100014.84
2022-09-23T22:06:26.765Z,100018.41
2022-09-23T22:08:59.007Z,100014.50
2022-09-23T22:11:47.539Z,100007.47
2022-09-23T22:14:17.002Z,100005.78
2022-09-23T22:16:44.539Z,100010.06
2022-09-23T22:19:13.599Z,100006.66
2022-09-23T22:21:43.156Z,100009.50
2022-09-23T22:24:11.558Z,100009.97
2022-09-23T22:26:41.117Z,100018.91
2022-09-23T22:29:32.267Z,100014.44
2022-09-23T22:32:19.745Z,100011.47
2022-09-23T22:34:50.395Z,100013.94
2022-09-23T22:37:21.272Z,100013.37
2022-09-23T22:39:48.904Z,100011.72
2022-09-23T22:42:16.269Z,100014.66
2022-09-23T22:44:43.709Z,100011.84
2022-09-23T22:47:11.338Z,100016.44
2022-09-23T22:49:38.678Z,100008.31
2022-09-23T22:52:08.042Z,100012.31
2022-09-23T22:54:35.782Z,100018.66
2022-09-23T22:57:07.659Z,100017.75
2022-09-23T22:59:35.678Z,100020.31
2022-09-23T23:02:03.601Z,100004.78
2022-09-23T23:04:31.086Z,100006.53
2022-09-23T23:07:02.209Z,100009.50
2022-09-23T23:09:29.814Z,100009.25
2022-09-23T23:11:57.112Z,100015.62
2022-09-23T23:14:25.765Z,100009.72
2022-09-23T23:16:53.567Z,100018.28
2022-09-23T23:19:20.876Z,100015.00
2022-09-23T23:21:49.734Z,100013.59
2022-09-23T23:24:22.607Z,99999.72
2022-09-23T23:26:51.197Z,100007.34
2022-09-23T23:29:20.431Z,100009.84
2022-09-23T23:31:48.564Z,100007.59
2022-09-23T23:34:17.882Z,100003.94
2022-09-23T23:36:46.458Z,100008.28
2022-09-23T23:39:14.170Z,100002.28
2022-09-23T23:41:41.712Z,100004.06
2022-09-23T23:44:11.636Z,100000.53
2022-09-23T23:46:39.080Z,99997.94
2022-09-23T23:49:06.797Z,99993.09
2022-09-23T23:51:34.425Z,99993.81
2022-09-23T23:54:01.846Z,99994.25
2022-09-23T23:56:30.353Z,99996.25
2022-09-23T23:59:00.109Z,99997.56
